Página principal
Imagens de satélite Previsões 15 diasClimaMeteorologia maritima Ciclones Descargas eléctricas AeroportosFAQ Notícias Sobre
Tempo : Europa África América do Norte América do Sul Ásia Austrália-Oceania Outros
Línguas Contacto

Cuiabá, Mato Grosso, Brasil

latitude: 15-39S, longitude: 056-06W, altura: 187 m


METAR: SBCY 302300Z 17003KT CAVOK 28/18 Q1015
short-TAF: em falta
long-TAF: SBCY 301600Z 3018/3118 06005KT CAVOK TX34/3019Z TN25/3106Z BECMG 3102/3104 09005KT RMK PDX

Hora: 19:16 (23:16 UTC)

Observação actual do tempo

O boletim foi feito há 16 minutos, às 23:00 UTC  
Vento 03 kt de sul
Temperatura 28°C
Humidade 55%
Pressão 1015 hPa
Visibilidade 10 km ou mais
sem nuvens abaixo de 1500 metros e sem cumulonimbus

Mudar unidades

Previsão

O boletim foi feito há 6 horas e 19 minutos, às 16:57 UTC  
Previsão válida de 30 às 18 UTC a 31 às 18 UTC
Vento 05 kt de es-nordeste
Visibilidade 10 km ou mais
sem nuvens abaixo de 1500 metros e sem cumulonimbus
Tornando-se
de 31 às 02 UTC a 31 às 04 UTC
Vento 05 kt de este
As informações contidas neste sítio estão sujeitas a uma declaração de exoneração de responsabilidade
Tempo : Europa África América do Norte América do Sul Ásia Austrália-Oceania Outros
Imagens de satélite Previsões 15 diasClimaMeteorologia maritima Ciclones Descargas eléctricas AeroportosFAQ Línguas Contacto Notícias Sobre